createdAt,value
2019-02-28T00:00:44.525Z,10.70
2019-02-28T00:03:16.529Z,10.13
2019-02-28T00:05:46.917Z,10.07
2019-02-28T00:08:17.337Z,9.67
2019-02-28T00:10:47.707Z,10.07
2019-02-28T00:13:21.658Z,9.07
2019-02-28T00:15:51.365Z,9.43
2019-02-28T00:18:21.739Z,9.33
2019-02-28T00:20:52.104Z,8.63
2019-02-28T00:23:22.870Z,9.03
2019-02-28T00:25:53.248Z,8.17
2019-02-28T00:28:25.764Z,8.70
2019-02-28T00:30:55.568Z,8.37
2019-02-28T00:33:25.938Z,8.67
2019-02-28T00:35:56.280Z,7.70
2019-02-28T00:38:29.454Z,7.83
2019-02-28T00:40:58.621Z,7.60
2019-02-28T00:43:28.997Z,7.27
2019-02-28T00:45:59.341Z,8.03
2019-02-28T00:48:30.077Z,7.40
2019-02-28T00:51:00.422Z,7.67
2019-02-28T00:53:30.782Z,7.20
2019-02-28T00:56:01.134Z,7.53
2019-02-28T00:58:31.802Z,7.20
2019-02-28T01:01:02.161Z,7.70
2019-02-28T01:03:33.653Z,7.57
2019-02-28T01:06:04.025Z,7.40
2019-02-28T01:08:34.453Z,7.80
2019-02-28T01:11:04.846Z,7.67
2019-02-28T01:13:36.271Z,7.40
2019-02-28T01:16:06.626Z,7.60
2019-02-28T01:18:37.597Z,7.73
2019-02-28T01:21:07.991Z,7.43
2019-02-28T01:23:39.445Z,8.20
2019-02-28T01:26:11.748Z,8.17
2019-02-28T01:28:41.756Z,7.77
2019-02-28T01:31:12.317Z,8.10
2019-02-28T01:33:42.793Z,8.00
2019-02-28T01:36:15.649Z,7.60
2019-02-28T01:38:45.147Z,7.17
2019-02-28T01:41:15.470Z,7.30
2019-02-28T01:43:46.805Z,7.53
2019-02-28T01:46:18.203Z,8.23
2019-02-28T01:48:48.569Z,7.80
2019-02-28T01:51:18.913Z,7.33
2019-02-28T01:53:50.382Z,7.93
2019-02-28T01:56:21.221Z,8.10
2019-02-28T01:58:51.578Z,7.97
2019-02-28T02:01:21.919Z,8.27
2019-02-28T02:03:52.345Z,7.93
2019-02-28T02:06:25.734Z,8.33
2019-02-28T02:08:54.717Z,7.97
2019-02-28T02:11:26.680Z,7.90
2019-02-28T02:13:58.286Z,7.70
2019-02-28T02:16:28.627Z,7.80
2019-02-28T02:18:58.989Z,8.23
2019-02-28T02:21:31.406Z,8.37
2019-02-28T02:24:01.310Z,8.03
2019-02-28T02:26:31.845Z,7.93
2019-02-28T02:29:02.233Z,9.03
2019-02-28T02:31:32.570Z,9.13
2019-02-28T02:34:02.949Z,8.77
2019-02-28T02:36:33.278Z,8.83
2019-02-28T02:39:04.927Z,8.63
2019-02-28T02:41:35.986Z,9.27
2019-02-28T02:44:06.329Z,8.93
2019-02-28T02:46:36.662Z,8.93
2019-02-28T02:49:07.060Z,9.53
2019-02-28T02:51:37.373Z,9.03
2019-02-28T02:54:07.732Z,9.23
2019-02-28T02:56:41.986Z,9.40
2019-02-28T02:59:10.170Z,10.07
2019-02-28T03:01:40.494Z,8.80
2019-02-28T03:04:10.866Z,9.90
2019-02-28T03:06:41.201Z,9.37
2019-02-28T03:09:11.586Z,10.37
2019-02-28T03:11:41.988Z,10.17
2019-02-28T03:14:16.352Z,11.13
2019-02-28T03:16:44.307Z,10.40
2019-02-28T03:19:14.630Z,10.73
2019-02-28T03:21:51.526Z,11.43
2019-02-28T03:24:17.059Z,11.07
2019-02-28T03:26:47.518Z,10.87
2019-02-28T03:29:17.858Z,11.10
2019-02-28T03:31:54.930Z,10.97
2019-02-28T03:34:20.178Z,11.57
2019-02-28T03:36:55.495Z,11.40
2019-02-28T03:39:24.551Z,11.97
2019-02-28T03:41:55.581Z,11.27
2019-02-28T03:44:25.918Z,11.53
2019-02-28T03:46:56.479Z,12.67
2019-02-28T03:49:26.812Z,11.83
2019-02-28T03:51:57.182Z,12.00
2019-02-28T03:54:28.794Z,12.47
2019-02-28T03:56:59.542Z,12.03
2019-02-28T03:59:29.879Z,12.53
2019-02-28T04:02:00.250Z,12.80
2019-02-28T04:04:30.587Z,12.57
2019-02-28T04:07:00.953Z,12.57
2019-02-28T04:09:31.329Z,12.43
2019-02-28T04:12:07.284Z,13.33
2019-02-28T04:14:34.396Z,13.83
2019-02-28T04:17:04.966Z,12.77
2019-02-28T04:19:35.327Z,13.10
2019-02-28T04:22:05.690Z,13.10
2019-02-28T04:24:36.064Z,14.07
2019-02-28T04:27:07.784Z,13.93
2019-02-28T04:29:38.276Z,15.00
2019-02-28T04:32:08.708Z,14.77
2019-02-28T04:34:39.045Z,13.90
2019-02-28T04:37:09.711Z,15.00
2019-02-28T04:39:41.296Z,14.93
2019-02-28T04:42:11.653Z,15.67
2019-02-28T04:44:42.040Z,15.90
2019-02-28T04:47:12.386Z,16.40
2019-02-28T04:49:42.759Z,16.50
2019-02-28T04:52:13.108Z,17.40
2019-02-28T04:54:43.489Z,17.63
2019-02-28T04:57:17.423Z,16.97
2019-02-28T04:59:47.501Z,18.80
2019-02-28T05:02:20.048Z,18.27
2019-02-28T05:04:49.937Z,19.30
2019-02-28T05:07:20.290Z,18.87
2019-02-28T05:09:50.657Z,19.57
2019-02-28T05:12:21.282Z,21.10
2019-02-28T05:14:51.614Z,21.50
2019-02-28T05:17:22.272Z,21.57
2019-02-28T05:19:55.140Z,22.70
2019-02-28T05:22:27.557Z,22.40
2019-02-28T05:24:57.559Z,22.77
2019-02-28T05:27:27.961Z,22.50
2019-02-28T05:29:58.289Z,23.57
2019-02-28T05:32:28.658Z,23.23
2019-02-28T05:34:59.014Z,25.23
2019-02-28T05:37:29.371Z,23.20
2019-02-28T05:40:05.423Z,25.33
2019-02-28T05:42:32.741Z,25.90
2019-02-28T05:45:03.200Z,26.10
2019-02-28T05:47:42.487Z,26.43
2019-02-28T05:50:05.785Z,26.67
2019-02-28T05:52:36.137Z,26.27
2019-02-28T05:55:06.757Z,27.73
2019-02-28T05:57:39.428Z,28.50
2019-02-28T06:00:10.577Z,29.20
2019-02-28T06:02:40.921Z,29.20
2019-02-28T06:05:11.949Z,29.57
2019-02-28T06:07:43.185Z,29.20
2019-02-28T06:10:13.564Z,30.87
2019-02-28T06:12:44.800Z,30.27
2019-02-28T06:15:15.458Z,31.43
2019-02-28T06:17:45.804Z,30.87
2019-02-28T06:20:17.085Z,31.93
2019-02-28T06:22:48.173Z,31.07
2019-02-28T06:25:24.008Z,31.30
2019-02-28T06:27:50.821Z,31.73
2019-02-28T06:30:21.192Z,32.20
2019-02-28T06:32:51.562Z,31.70
2019-02-28T06:35:21.923Z,30.97
2019-02-28T06:37:52.557Z,33.27
2019-02-28T06:40:23.285Z,31.93
2019-02-28T06:42:55.771Z,31.67
2019-02-28T06:45:25.629Z,32.83
2019-02-28T06:47:55.985Z,33.67
2019-02-28T06:50:26.367Z,33.53
2019-02-28T06:52:59.315Z,32.93
2019-02-28T06:55:28.773Z,33.40
2019-02-28T06:58:02.945Z,34.67
2019-02-28T07:00:33.330Z,34.50
2019-02-28T07:03:04.455Z,33.90
2019-02-28T07:05:34.978Z,34.10
2019-02-28T07:08:05.326Z,34.67
2019-02-28T07:10:35.693Z,33.87
2019-02-28T07:13:06.145Z,33.37
2019-02-28T07:15:36.457Z,34.70
2019-02-28T07:18:06.841Z,35.27
2019-02-28T07:20:37.182Z,35.10
2019-02-28T07:23:07.554Z,34.67
2019-02-28T07:25:37.897Z,34.33
2019-02-28T07:28:08.403Z,33.80
2019-02-28T07:30:38.705Z,35.70
2019-02-28T07:33:10.591Z,34.40
2019-02-28T07:35:41.204Z,35.13
2019-02-28T07:38:11.599Z,37.53
2019-02-28T07:40:42.001Z,36.97
2019-02-28T07:43:13.241Z,36.77
2019-02-28T07:45:44.810Z,36.50
2019-02-28T07:48:15.267Z,37.10
2019-02-28T07:50:46.688Z,38.87
2019-02-28T07:53:18.041Z,39.13
2019-02-28T07:55:48.408Z,37.67
2019-02-28T07:58:19.709Z,38.00
2019-02-28T08:00:52.695Z,38.13
2019-02-28T08:03:22.181Z,39.07
2019-02-28T08:05:52.565Z,40.47
2019-02-28T08:08:23.390Z,39.20
2019-02-28T08:10:55.136Z,39.63
2019-02-28T08:13:25.527Z,40.90
2019-02-28T08:15:56.937Z,39.73
2019-02-28T08:18:27.997Z,38.47
2019-02-28T08:20:58.532Z,40.67
2019-02-28T08:23:30.234Z,40.83
2019-02-28T08:26:01.209Z,41.53
2019-02-28T08:28:35.829Z,40.67
2019-02-28T08:31:04.350Z,39.80
2019-02-28T08:33:34.712Z,40.63
2019-02-28T08:36:11.611Z,40.43
2019-02-28T08:38:37.601Z,37.40
2019-02-28T08:41:07.999Z,39.63
2019-02-28T08:43:38.354Z,40.43
2019-02-28T08:46:11.122Z,40.33
2019-02-28T08:48:41.122Z,40.63
2019-02-28T08:51:11.557Z,41.07
2019-02-28T08:53:41.961Z,40.60
2019-02-28T08:56:14.060Z,40.23
2019-02-28T08:58:44.454Z,41.63
2019-02-28T09:01:15.020Z,40.40
2019-02-28T09:03:45.364Z,42.33
2019-02-28T09:06:15.759Z,43.27
2019-02-28T09:08:46.145Z,41.47
2019-02-28T09:11:20.617Z,41.80
2019-02-28T09:13:48.907Z,42.30
2019-02-28T09:16:19.239Z,42.90
2019-02-28T09:18:49.712Z,41.80
2019-02-28T09:21:20.061Z,42.57
2019-02-28T09:23:50.578Z,42.37
2019-02-28T09:26:20.921Z,42.43
2019-02-28T09:28:51.405Z,42.73
2019-02-28T09:31:21.745Z,42.33
2019-02-28T09:33:52.137Z,42.83
2019-02-28T09:36:22.781Z,43.97
2019-02-28T09:38:57.047Z,43.03
2019-02-28T09:41:25.182Z,42.83
2019-02-28T09:43:56.887Z,42.47
2019-02-28T09:46:27.537Z,37.77
2019-02-28T09:48:59.933Z,40.90
2019-02-28T09:51:31.994Z,38.37
2019-02-28T09:54:02.022Z,40.27
2019-02-28T09:56:32.385Z,40.10
2019-02-28T09:59:03.137Z,38.27
2019-02-28T10:01:35.373Z,41.90
2019-02-28T10:04:05.793Z,40.90
2019-02-28T10:06:37.229Z,38.57
2019-02-28T10:09:10.525Z,37.40
2019-02-28T10:11:40.871Z,36.80
2019-02-28T10:14:12.220Z,37.43
2019-02-28T10:16:42.745Z,37.23
2019-02-28T10:19:13.288Z,37.07
2019-02-28T10:21:44.563Z,38.47
2019-02-28T10:24:14.929Z,37.43
2019-02-28T10:26:48.119Z,38.13
2019-02-28T10:29:17.287Z,37.67
2019-02-28T10:31:47.749Z,37.17
2019-02-28T10:34:18.186Z,37.47
2019-02-28T10:36:48.928Z,38.37
2019-02-28T10:39:19.346Z,37.27
2019-02-28T10:41:49.810Z,37.83
2019-02-28T10:44:20.222Z,38.27
2019-02-28T10:46:53.962Z,38.20
2019-02-28T10:49:24.149Z,39.63
2019-02-28T10:51:54.702Z,38.63
2019-02-28T10:54:25.089Z,38.97
2019-02-28T10:56:56.741Z,39.13
2019-02-28T10:59:27.097Z,39.40
2019-02-28T11:01:57.581Z,38.73
2019-02-28T11:04:27.941Z,39.73
2019-02-28T11:06:59.384Z,38.67
2019-02-28T11:09:30.393Z,38.87
2019-02-28T11:12:01.004Z,40.17
2019-02-28T11:14:35.495Z,39.23
2019-02-28T11:17:04.603Z,39.20
2019-02-28T11:19:35.381Z,39.00
2019-02-28T11:22:06.049Z,38.00
2019-02-28T11:24:36.474Z,40.37
2019-02-28T11:27:08.318Z,41.13
2019-02-28T11:29:38.674Z,37.90
2019-02-28T11:32:09.497Z,39.77
2019-02-28T11:34:40.197Z,37.87
2019-02-28T11:37:12.710Z,40.80
2019-02-28T11:39:43.133Z,40.23
2019-02-28T11:42:13.781Z,38.77
2019-02-28T11:44:46.743Z,41.23
2019-02-28T11:47:16.853Z,41.87
2019-02-28T11:49:47.209Z,41.27
2019-02-28T11:52:17.588Z,40.07
2019-02-28T11:54:48.288Z,40.97
2019-02-28T11:57:20.526Z,39.47
2019-02-28T11:59:50.745Z,40.70
2019-02-28T12:02:21.475Z,39.30
2019-02-28T12:04:53.049Z,40.50
2019-02-28T12:07:23.933Z,40.67
2019-02-28T12:09:54.739Z,40.33
2019-02-28T12:12:26.089Z,39.47
2019-02-28T12:14:56.808Z,41.53
2019-02-28T12:17:28.551Z,39.50
2019-02-28T12:19:59.241Z,40.33
2019-02-28T12:22:29.645Z,40.13
2019-02-28T12:24:59.993Z,41.13
2019-02-28T12:27:31.361Z,40.27
2019-02-28T12:30:01.707Z,41.17
2019-02-28T12:32:32.165Z,39.27
2019-02-28T12:35:02.545Z,41.13
2019-02-28T12:37:34.439Z,37.30
2019-02-28T12:40:10.048Z,39.60
2019-02-28T12:42:39.593Z,38.80
2019-02-28T12:45:16.280Z,37.77
2019-02-28T12:47:46.694Z,34.80
2019-02-28T12:50:17.164Z,39.23
2019-02-28T12:52:49.982Z,39.97
2019-02-28T12:55:20.590Z,39.73
2019-02-28T12:57:51.750Z,37.50
2019-02-28T13:00:25.054Z,39.13
2019-02-28T13:02:55.624Z,35.97
2019-02-28T13:05:26.104Z,38.20
2019-02-28T13:07:56.801Z,37.03
2019-02-28T13:10:28.582Z,38.00
2019-02-28T13:13:06.280Z,37.33
2019-02-28T13:15:33.522Z,37.00
2019-02-28T13:18:07.261Z,36.43
2019-02-28T13:20:36.519Z,37.43
2019-02-28T13:23:08.854Z,37.03
2019-02-28T13:25:39.609Z,37.77
2019-02-28T13:28:10.026Z,37.13
2019-02-28T13:30:45.050Z,37.00
2019-02-28T13:33:14.999Z,39.07
2019-02-28T13:35:47.213Z,38.07
2019-02-28T13:38:19.112Z,36.87
2019-02-28T13:40:49.428Z,38.00
2019-02-28T13:43:22.657Z,34.67
2019-02-28T13:45:55.974Z,37.43
2019-02-28T13:48:26.556Z,36.53
2019-02-28T13:50:59.360Z,38.10
2019-02-28T13:53:30.758Z,38.00
2019-02-28T13:56:01.353Z,38.93
2019-02-28T13:58:32.366Z,39.23
2019-02-28T14:01:03.114Z,39.23
2019-02-28T14:03:33.666Z,39.43
2019-02-28T14:06:04.022Z,38.10
2019-02-28T14:08:35.010Z,38.50
2019-02-28T14:11:05.812Z,39.20
2019-02-28T14:13:37.710Z,39.87
2019-02-28T14:16:09.540Z,40.47
2019-02-28T14:18:42.513Z,41.80
2019-02-28T14:21:13.155Z,40.70
2019-02-28T14:23:43.654Z,42.23
2019-02-28T14:26:14.196Z,41.07
2019-02-28T14:28:45.361Z,40.93
2019-02-28T14:31:16.785Z,42.63
2019-02-28T14:33:47.266Z,41.73
2019-02-28T14:36:17.633Z,42.50
2019-02-28T14:38:48.195Z,42.53
2019-02-28T14:41:18.549Z,43.13
2019-02-28T14:43:48.944Z,42.63
2019-02-28T14:46:19.296Z,44.30
2019-02-28T14:48:49.797Z,41.87
2019-02-28T14:51:20.170Z,43.33
2019-02-28T14:53:50.581Z,43.10
2019-02-28T14:56:20.976Z,44.33
2019-02-28T14:58:54.491Z,46.10
2019-02-28T15:01:23.472Z,47.73
2019-02-28T15:03:53.861Z,48.60
2019-02-28T15:06:26.412Z,47.07
2019-02-28T15:08:56.329Z,47.93
2019-02-28T15:11:26.793Z,45.57
2019-02-28T15:13:57.266Z,48.20
2019-02-28T15:16:29.637Z,48.57
2019-02-28T15:19:00.070Z,49.87
2019-02-28T15:21:30.714Z,47.50
2019-02-28T15:24:01.178Z,49.60
2019-02-28T15:26:33.126Z,48.80
2019-02-28T15:29:03.622Z,49.50
2019-02-28T15:31:34.001Z,50.07
2019-02-28T15:34:05.497Z,49.57
2019-02-28T15:36:36.645Z,50.13
2019-02-28T15:39:07.994Z,49.30
2019-02-28T15:41:38.663Z,49.87
2019-02-28T15:44:09.130Z,49.83
2019-02-28T15:46:39.484Z,49.20
2019-02-28T15:49:10.740Z,48.40
2019-02-28T15:51:41.325Z,49.63
2019-02-28T15:54:11.754Z,50.23
2019-02-28T15:56:42.109Z,50.23
2019-02-28T15:59:14.861Z,49.93
2019-02-28T16:01:44.893Z,49.60
2019-02-28T16:04:15.399Z,50.93
2019-02-28T16:06:45.790Z,48.50
2019-02-28T16:09:18.763Z,50.13
2019-02-28T16:11:48.627Z,50.03
2019-02-28T16:14:20.229Z,50.93
2019-02-28T16:16:50.921Z,45.23
2019-02-28T16:19:21.962Z,49.07
2019-02-28T16:21:54.210Z,49.63
2019-02-28T16:24:24.607Z,46.37
2019-02-28T16:26:56.731Z,48.77
2019-02-28T16:29:27.053Z,47.33
2019-02-28T16:31:57.406Z,48.57
2019-02-28T16:34:27.877Z,48.13
2019-02-28T16:37:01.118Z,48.17
2019-02-28T16:39:30.329Z,48.53
2019-02-28T16:42:00.693Z,47.03
2019-02-28T16:44:31.826Z,46.47
2019-02-28T16:47:02.205Z,46.23
2019-02-28T16:49:32.601Z,47.50
2019-02-28T16:52:05.979Z,45.53
2019-02-28T16:54:34.952Z,46.07
2019-02-28T16:57:05.445Z,48.03
2019-02-28T16:59:35.822Z,45.13
2019-02-28T17:02:06.589Z,47.10
2019-02-28T17:04:36.936Z,47.80
2019-02-28T17:07:09.403Z,44.23
2019-02-28T17:09:42.195Z,45.37
2019-02-28T17:12:27.180Z,45.53
2019-02-28T17:14:58.397Z,46.37
2019-02-28T17:17:35.937Z,45.97
2019-02-28T17:20:07.195Z,46.77
2019-02-28T17:22:37.654Z,44.93
2019-02-28T17:25:08.113Z,45.60
2019-02-28T17:27:45.112Z,45.20
2019-02-28T17:30:23.715Z,44.10
2019-02-28T17:32:54.083Z,45.60
2019-02-28T17:35:24.445Z,43.23
2019-02-28T17:37:59.852Z,45.80
2019-02-28T17:40:27.136Z,45.43
2019-02-28T17:42:57.550Z,44.27
2019-02-28T17:45:37.893Z,46.33
2019-02-28T17:48:57.333Z,45.83
2019-02-28T17:51:55.505Z,45.50
2019-02-28T17:55:06.665Z,43.57
2019-02-28T17:57:59.970Z,44.67
2019-02-28T18:01:14.574Z,44.93
2019-02-28T18:04:38.043Z,43.73
2019-02-28T18:07:54.460Z,44.30
2019-02-28T18:10:41.018Z,43.90
2019-02-28T18:13:37.301Z,45.57
2019-02-28T18:16:22.879Z,46.20
2019-02-28T18:19:37.028Z,46.37
2019-02-28T18:22:57.738Z,44.87
2019-02-28T18:26:15.174Z,45.60
2019-02-28T18:28:58.849Z,45.03
2019-02-28T18:31:29.285Z,47.40
2019-02-28T18:34:06.150Z,48.97
2019-02-28T18:36:36.805Z,48.57
2019-02-28T18:39:11.655Z,46.80
2019-02-28T18:41:43.020Z,51.30
2019-02-28T18:44:13.712Z,46.67
2019-02-28T18:46:44.138Z,49.17
2019-02-28T18:49:14.681Z,48.37
2019-02-28T18:51:45.101Z,48.97
2019-02-28T18:54:15.689Z,48.70
2019-02-28T18:56:46.121Z,53.83
2019-02-28T18:59:16.594Z,49.97
2019-02-28T19:01:46.939Z,50.17
2019-02-28T19:04:17.737Z,53.57
2019-02-28T19:06:48.166Z,50.33
2019-02-28T19:09:25.421Z,52.93
2019-02-28T19:11:55.844Z,52.97
2019-02-28T19:14:26.440Z,52.87
2019-02-28T19:16:56.775Z,55.07
2019-02-28T19:19:27.170Z,55.20
2019-02-28T19:21:57.585Z,53.60
2019-02-28T19:24:28.358Z,54.17
2019-02-28T19:26:58.774Z,57.10
2019-02-28T19:29:29.206Z,55.33
2019-02-28T19:31:59.631Z,55.97
2019-02-28T19:34:30.053Z,54.03
2019-02-28T19:37:00.478Z,56.20
2019-02-28T19:39:31.497Z,55.57
2019-02-28T19:42:01.922Z,55.17
2019-02-28T19:44:32.815Z,54.30
2019-02-28T19:47:03.181Z,55.93
2019-02-28T19:49:33.613Z,55.20
2019-02-28T19:52:03.977Z,55.67
2019-02-28T19:54:35.090Z,56.53
2019-02-28T19:57:05.547Z,54.13
2019-02-28T19:59:35.922Z,58.57
2019-02-28T20:02:06.293Z,57.43
2019-02-28T20:04:36.687Z,54.63
2019-02-28T20:07:07.173Z,55.43
2019-02-28T20:09:37.613Z,56.90
2019-02-28T20:12:08.126Z,55.37
2019-02-28T20:14:38.479Z,58.60
2019-02-28T20:17:08.895Z,57.77
2019-02-28T20:19:39.311Z,57.50
2019-02-28T20:22:10.781Z,58.87
2019-02-28T20:24:41.145Z,56.80
2019-02-28T20:27:11.633Z,60.00
2019-02-28T20:29:43.068Z,58.90
2019-02-28T20:32:13.531Z,55.63
2019-02-28T20:34:43.968Z,57.43
2019-02-28T20:37:14.381Z,58.23
2019-02-28T20:39:44.741Z,58.90
2019-02-28T20:42:15.597Z,58.07
2019-02-28T20:44:46.037Z,58.23
2019-02-28T20:47:16.497Z,59.37
2019-02-28T20:49:46.938Z,56.90
2019-02-28T20:52:17.397Z,60.27
2019-02-28T20:54:48.224Z,59.60
2019-02-28T20:57:19.305Z,58.40
2019-02-28T20:59:49.757Z,57.13
2019-02-28T21:02:20.150Z,56.70
2019-02-28T21:04:50.583Z,55.37
2019-02-28T21:07:21.125Z,52.07
2019-02-28T21:09:51.597Z,55.87
2019-02-28T21:12:22.054Z,57.83
2019-02-28T21:14:52.458Z,57.40
2019-02-28T21:17:29.455Z,55.07
2019-02-28T21:19:56.453Z,53.07
2019-02-28T21:22:26.879Z,52.27
2019-02-28T21:24:57.349Z,50.87
2019-02-28T21:27:27.710Z,49.77
2019-02-28T21:29:58.113Z,50.77
2019-02-28T21:32:28.913Z,49.23
2019-02-28T21:34:59.469Z,49.50
2019-02-28T21:37:29.918Z,49.23
2019-02-28T21:40:00.974Z,49.53
2019-02-28T21:42:32.613Z,47.57
2019-02-28T21:45:03.401Z,47.00
2019-02-28T21:47:35.376Z,43.53
2019-02-28T21:50:07.430Z,45.67
2019-02-28T21:52:37.850Z,44.17
2019-02-28T21:55:09.910Z,43.67
2019-02-28T21:57:40.339Z,43.37
2019-02-28T22:00:13.750Z,43.43
2019-02-28T22:02:45.221Z,43.17
2019-02-28T22:05:16.538Z,43.17
2019-02-28T22:07:47.274Z,40.83
2019-02-28T22:10:18.009Z,42.77
2019-02-28T22:12:48.420Z,42.63
2019-02-28T22:15:19.621Z,40.67
2019-02-28T22:17:50.061Z,42.23
2019-02-28T22:20:24.911Z,41.70
2019-02-28T22:22:57.948Z,39.27
2019-02-28T22:25:31.096Z,37.37
2019-02-28T22:28:01.834Z,38.43
2019-02-28T22:31:00.551Z,39.40
2019-02-28T22:33:58.638Z,39.07
2019-02-28T22:36:32.522Z,37.00
2019-02-28T22:39:03.757Z,36.43
2019-02-28T22:41:36.078Z,37.63
2019-02-28T22:44:06.438Z,37.37
2019-02-28T22:46:36.828Z,36.10
2019-02-28T22:49:07.194Z,37.50
2019-02-28T22:51:37.545Z,35.80
2019-02-28T22:54:09.001Z,36.10
2019-02-28T22:56:39.727Z,35.90
2019-02-28T22:59:10.882Z,35.60
2019-02-28T23:01:42.640Z,35.77
2019-02-28T23:04:13.110Z,35.97
2019-02-28T23:06:43.554Z,35.13
2019-02-28T23:09:14.486Z,37.73
2019-02-28T23:11:44.914Z,35.70
2019-02-28T23:14:15.683Z,35.43
2019-02-28T23:16:46.030Z,35.87
2019-02-28T23:19:16.971Z,35.03
2019-02-28T23:21:47.317Z,35.80
2019-02-28T23:24:17.662Z,35.00
2019-02-28T23:27:09.463Z,33.97
2019-02-28T23:29:42.220Z,35.77
2019-02-28T23:32:36.986Z,35.97
2019-02-28T23:35:11.234Z,36.33
2019-02-28T23:37:41.630Z,34.30
2019-02-28T23:40:12.071Z,33.50
2019-02-28T23:42:42.935Z,32.73
2019-02-28T23:45:13.289Z,33.77
2019-02-28T23:47:43.715Z,34.87
2019-02-28T23:50:14.190Z,34.17
2019-02-28T23:52:44.671Z,34.33
2019-02-28T23:55:15.144Z,29.07
2019-02-28T23:57:47.110Z,29.23
